Terminal Aerodrome Forecast
Issued by NWS Cleveland, OH

Home | Current Version | Previous Version | Text Only | Print | Product List | Glossary On
Versions: 1 2 3 4 5 6 7 8 9 10 11 12 13 14
593
FTUS41 KCLE 300535
TAFTOL
TAF
KTOL 300535Z 3006/3106 VRB04KT P6SM SCT250
     FM301400 27008KT P6SM SCT030
      TEMPO 3014/3016 BKN030
     FM301600 29008KT P6SM SCT050
     FM302300 31004KT P6SM SCT250=

USA.gov is the U.S. government's official web portal to all federal, state and local government web resources and services.